TimeCST,TemperatureF,Dew PointF,Humidity,Sea Level PressureIn,VisibilityMPH,Wind Direction,Wind SpeedMPH,Gust SpeedMPH,PrecipitationIn,Events,Conditions,WindDirDegrees,DateUTC
12:53 AM,44.1,36.0,73,30.18,10.0,NNW,9.2,-,0.00,,Overcast,330,2011-12-05 06:53:00
1:53 AM,43.0,36.0,76,30.17,10.0,NNE,8.1,-,N/A,,Overcast,20,2011-12-05 07:53:00
2:04 AM,42.8,35.6,76,30.17,10.0,ENE,9.2,-,0.00,Rain,Light Rain,60,2011-12-05 08:04:00
2:53 AM,42.1,35.1,76,30.11,10.0,NE,10.4,-,0.00,,Partly Cloudy,40,2011-12-05 08:53:00
3:53 AM,42.1,34.0,73,30.09,10.0,NNE,8.1,-,N/A,,Overcast,30,2011-12-05 09:53:00
4:06 AM,42.8,33.8,70,30.08,10.0,North,13.8,-,N/A,,Overcast,10,2011-12-05 10:06:00
4:53 AM,41.0,33.8,76,30.10,10.0,North,8.1,-,N/A,,Overcast,360,2011-12-05 10:53:00
5:53 AM,41.0,33.1,73,30.13,10.0,NW,8.1,-,N/A,,Overcast,310,2011-12-05 11:53:00
6:53 AM,39.9,33.1,77,30.22,7.0,WNW,9.2,-,0.02,Rain,Light Rain,300,2011-12-05 12:53:00
7:34 AM,37.4,33.8,87,30.23,2.5,NNW,11.5,-,0.07,Rain,Rain,340,2011-12-05 13:34:00
7:43 AM,37.4,32.0,81,30.24,2.5,North,11.5,-,0.09,Snow,Light Snow,350,2011-12-05 13:43:00
7:51 AM,35.6,32.0,87,30.25,1.0,North,9.2,-,0.11,Snow,Light Snow,350,2011-12-05 13:51:00
7:53 AM,35.1,32.0,89,30.26,1.0,North,8.1,-,0.12,Snow,Light Snow,350,2011-12-05 13:53:00
8:53 AM,35.1,32.0,89,30.30,1.5,NNW,6.9,-,0.06,Snow,Light Snow,330,2011-12-05 14:53:00
9:29 AM,35.6,30.2,81,30.28,2.5,North,10.4,-,0.01,Snow,Light Snow,350,2011-12-05 15:29:00
9:53 AM,35.1,30.9,85,30.26,1.8,North,6.9,-,0.02,Snow,Light Snow,10,2011-12-05 15:53:00
9:57 AM,35.6,32.0,87,30.25,3.0,North,6.9,-,0.00,Snow,Light Snow,360,2011-12-05 15:57:00
10:53 AM,37.0,32.0,82,30.25,3.0,NNW,8.1,-,0.00,,Haze,340,2011-12-05 16:53:00
11:53 AM,39.9,30.9,70,30.23,10.0,NW,8.1,-,N/A,,Overcast,320,2011-12-05 17:53:00
12:53 PM,41.0,28.9,62,30.21,10.0,NNW,13.8,-,N/A,,Overcast,330,2011-12-05 18:53:00
1:53 PM,39.0,27.0,62,30.21,10.0,NNW,16.1,-,N/A,,Overcast,330,2011-12-05 19:53:00
2:53 PM,39.0,26.1,60,30.19,10.0,North,16.1,23.0,N/A,,Overcast,10,2011-12-05 20:53:00
3:53 PM,37.4,26.6,65,30.20,10.0,North,10.4,-,N/A,,Overcast,350,2011-12-05 21:53:00
4:53 PM,37.9,26.1,62,30.23,10.0,NNW,10.4,-,N/A,,Overcast,340,2011-12-05 22:53:00
5:53 PM,37.0,26.1,65,30.24,10.0,NNW,8.1,-,N/A,,Overcast,330,2011-12-05 23:53:00
6:53 PM,37.0,26.1,65,30.26,10.0,NNW,11.5,-,N/A,,Overcast,330,2011-12-06 00:53:00
7:53 PM,36.0,26.1,67,30.28,10.0,NNW,10.4,-,N/A,,Overcast,330,2011-12-06 01:53:00
8:53 PM,36.0,26.1,67,30.29,10.0,NNW,13.8,19.6,N/A,,Overcast,340,2011-12-06 02:53:00
9:53 PM,36.0,26.1,67,30.29,10.0,North,10.4,-,N/A,,Overcast,360,2011-12-06 03:53:00
10:53 PM,36.0,26.1,67,30.29,10.0,NNW,6.9,-,N/A,,Overcast,340,2011-12-06 04:53:00
11:30 PM,35.6,26.6,70,30.30,10.0,NNW,10.4,-,N/A,,Overcast,330,2011-12-06 05:30:00
11:53 PM,35.1,27.0,72,30.30,9.0,NNW,12.7,-,N/A,,Overcast,340,2011-12-06 05:53:00